Time;durP1;ratioP1;P1;durP2;ratioP2;P2;SDS_P1;SDS_P2;PMS_P1;PMS_P2;Temp;Humidity;BMP_temperature;BMP_pressure;BME280_temperature;BME280_humidity;BME280_pressure;Samples;Min_cycle;Max_cycle;Signal;HPM_P1;HPM_P2
2023/05/21 00:02:43;;;;;;;16.87;11.22;;;;;;;15.77;81.86;100659.66;1474190;88;21883;-86
2023/05/21 00:05:10;;;;;;;18.57;10.70;;;;;;;15.81;82.74;100663.30;1455102;88;22301;-85
2023/05/21 00:07:36;;;;;;;13.17;10.67;;;;;;;15.82;83.25;100659.11;1478230;88;21332;-86
2023/05/21 00:10:03;;;;;;;18.00;10.80;;;;;;;15.83;83.24;100651.95;1466887;88;21849;-85
2023/05/21 00:12:31;;;;;;;18.17;11.70;;;;;;;15.85;83.22;100657.92;1484479;87;21495;-86
2023/05/21 00:14:58;;;;;;;15.20;9.97;;;;;;;15.86;82.63;100660.94;1482734;88;21347;-86
2023/05/21 00:17:25;;;;;;;13.27;8.93;;;;;;;15.83;83.14;100659.96;1478069;88;21340;-86
2023/05/21 00:19:51;;;;;;;12.43;9.47;;;;;;;15.77;83.56;100658.31;1477169;88;21347;-87
2023/05/21 00:22:17;;;;;;;13.33;9.47;;;;;;;15.75;83.13;100648.31;1481267;88;21660;-87
2023/05/21 00:24:44;;;;;;;14.27;9.83;;;;;;;15.78;83.16;100653.30;1478767;88;21348;-86
2023/05/21 00:27:12;;;;;;;12.97;9.43;;;;;;;15.81;83.14;100654.78;1472060;87;21495;-86
2023/05/21 00:29:39;;;;;;;15.63;10.17;;;;;;;15.81;83.54;100653.96;1453315;88;21429;-90
2023/05/21 00:32:06;;;;;;;17.23;10.50;;;;;;;15.79;83.63;100652.31;1477423;88;21303;-89
2023/05/21 00:34:32;;;;;;;14.47;9.53;;;;;;;15.76;84.07;100648.62;1475890;88;21443;-86
2023/05/21 00:36:58;;;;;;;15.83;10.10;;;;;;;15.73;84.56;100651.66;1471727;88;22183;-88
2023/05/21 00:39:24;;;;;;;13.13;9.80;;;;;;;15.68;86.07;100654.04;1501973;88;21354;-87
2023/05/21 00:41:52;;;;;;;11.43;9.50;;;;;;;15.65;86.25;100653.03;1483057;88;21325;-87
2023/05/21 00:44:19;;;;;;;12.97;9.13;;;;;;;15.64;86.03;100648.68;1474585;88;21370;-87
2023/05/21 00:46:47;;;;;;;13.10;9.57;;;;;;;15.64;86.14;100651.86;1476498;88;21496;-87
2023/05/21 00:49:14;;;;;;;12.37;10.43;;;;;;;15.65;86.05;100654.36;1441345;88;21451;-88
2023/05/21 00:51:40;;;;;;;15.20;10.27;;;;;;;15.62;86.58;100652.02;1479765;87;21524;-87
2023/05/21 00:54:07;;;;;;;11.90;10.60;;;;;;;15.60;86.02;100647.89;1481800;86;21325;-85
2023/05/21 00:57:00;;;;;;;14.40;9.87;;;;;;;15.56;85.94;100644.72;1498055;86;21384;-84
2023/05/21 00:59:26;;;;;;;16.53;10.17;;;;;;;15.52;86.91;100647.42;1392387;86;21723;-84
2023/05/21 01:01:54;;;;;;;14.13;10.10;;;;;;;15.50;86.31;100640.08;1480186;87;22773;-87
2023/05/21 01:04:24;;;;;;;11.00;9.00;;;;;;;15.50;87.29;100638.75;1467699;86;21479;-85
2023/05/21 01:06:52;;;;;;;13.13;9.53;;;;;;;15.47;87.29;100641.77;1471705;87;21976;-88
2023/05/21 01:09:19;;;;;;;17.17;11.40;;;;;;;15.43;87.76;100633.29;1462374;88;21354;-88
2023/05/21 01:11:50;;;;;;;20.30;10.03;;;;;;;15.39;87.92;100633.80;1458657;89;22201;-88
2023/05/21 01:14:17;;;;;;;19.23;10.63;;;;;;;15.37;88.41;100637.16;1461172;85;21504;-84
2023/05/21 01:16:47;;;;;;;15.73;10.90;;;;;;;15.31;88.42;100630.69;1469526;85;21280;-85
2023/05/21 01:19:17;;;;;;;16.40;9.67;;;;;;;15.26;88.21;100633.86;1460821;88;21399;-85
2023/05/21 01:21:45;;;;;;;;;;;;;;;15.20;89.42;100629.73;1478451;85;21420;-88
2023/05/21 01:24:14;;;;;;;13.27;9.40;;;;;;;15.13;90.24;100629.57;1473157;87;20446;-88
2023/05/21 01:26:42;;;;;;;15.20;10.07;;;;;;;15.10;90.01;100628.58;1476135;87;22417;-89
2023/05/21 01:29:13;;;;;;;11.63;9.03;;;;;;;15.06;90.31;100628.61;1483593;87;22260;-88
2023/05/21 01:32:29;;;;;;;17.80;10.65;;;;;;;15.04;90.40;100623.95;1472095;87;21383;-87
2023/05/21 01:35:06;;;;;;;15.40;9.63;;;;;;;15.03;90.44;100615.63;1464768;87;21456;-87
2023/05/21 01:38:10;;;;;;;14.70;10.13;;;;;;;15.02;90.66;100612.64;1460005;87;21457;-88
2023/05/21 01:40:48;;;;;;;13.93;10.17;;;;;;;15.00;91.88;100615.47;1471128;87;21434;-86
2023/05/21 01:43:15;;;;;;;14.40;9.67;;;;;;;15.00;92.11;100614.64;1458047;87;22595;-87
2023/05/21 01:45:43;;;;;;;21.77;11.30;;;;;;;15.01;91.84;100612.30;1464087;87;21390;-87
2023/05/21 01:48:11;;;;;;;11.53;9.50;;;;;;;15.02;91.66;100609.98;1476783;86;21448;-87
2023/05/21 01:50:39;;;;;;;13.33;10.47;;;;;;;15.02;91.94;100605.48;1470992;87;21360;-87
2023/05/21 01:53:05;;;;;;;13.00;10.13;;;;;;;15.02;91.73;100601.98;1474270;86;21419;-87
2023/05/21 01:55:32;;;;;;;18.33;11.57;;;;;;;15.00;91.81;100605.31;1449068;88;21533;-88
2023/05/21 01:57:59;;;;;;;14.47;10.40;;;;;;;14.93;92.11;100611.81;1473664;87;21345;-87
2023/05/21 02:01:01;;;;;;;14.47;10.90;;;;;;;14.84;92.58;100611.00;1449829;87;21407;-86
2023/05/21 02:03:29;;;;;;;15.40;9.27;;;;;;;14.77;93.22;100614.03;1448868;89;21555;-88
2023/05/21 02:05:56;;;;;;;12.67;9.50;;;;;;;14.69;94.71;100614.05;1440158;90;22709;-87
2023/05/21 02:08:22;;;;;;;12.00;8.97;;;;;;;14.62;95.40;100607.25;1439210;90;21408;-87
2023/05/21 02:10:49;;;;;;;13.17;9.80;;;;;;;14.58;95.72;100605.91;1447693;90;22287;-87
2023/05/21 02:13:19;;;;;;;17.13;9.90;;;;;;;14.57;95.29;100599.44;1438035;90;21334;-88
2023/05/21 02:15:44;;;;;;;13.83;9.93;;;;;;;14.55;95.47;100589.44;1449752;90;21503;-88
2023/05/21 02:18:10;;;;;;;18.87;11.50;;;;;;;14.55;94.57;100592.10;1451250;90;21536;-87
2023/05/21 02:20:36;;;;;;;16.97;10.03;;;;;;;14.56;95.11;100599.11;1450375;89;21326;-88
2023/05/21 02:23:02;;;;;;;13.07;9.70;;;;;;;14.56;94.75;100600.45;1449378;87;21600;-89
2023/05/21 02:25:28;;;;;;;18.30;10.13;;;;;;;14.59;94.20;100602.77;1455247;87;21317;-88
2023/05/21 02:27:55;;;;;;;24.23;10.90;;;;;;;14.61;94.45;100602.08;1464062;87;22556;-89
2023/05/21 02:30:21;;;;;;;14.23;9.03;;;;;;;14.61;93.80;100598.08;1458893;87;21457;-88
2023/05/21 02:32:48;;;;;;;13.07;9.87;;;;;;;14.58;94.79;100599.24;1451980;87;21531;-88
2023/05/21 02:35:20;;;;;;;14.90;9.87;;;;;;;14.59;94.65;100592.94;1488612;87;22390;-89
2023/05/21 02:37:47;;;;;;;14.17;9.27;;;;;;;14.59;95.19;100602.77;1445789;87;22270;-90
2023/05/21 02:40:14;;;;;;;13.50;9.77;;;;;;;14.56;94.80;100595.12;1460945;87;21319;-88
2023/05/21 02:42:41;;;;;;;15.50;10.80;;;;;;;14.54;95.09;100594.45;1458401;87;23073;-89
2023/05/21 02:45:11;;;;;;;10.83;9.43;;;;;;;14.55;94.46;100600.09;1455299;87;21400;-89
2023/05/21 02:47:37;;;;;;;;;;;;;;;14.55;94.30;100595.59;1453665;87;21451;-88
2023/05/21 02:50:07;;;;;;;13.13;9.47;;;;;;;14.55;94.58;100596.09;1455909;87;20817;-85
2023/05/21 02:52:33;;;;;;;15.00;8.80;;;;;;;14.53;94.92;100600.28;1443211;87;22301;-86
2023/05/21 02:54:59;;;;;;;14.63;9.63;;;;;;;14.54;94.96;100599.77;1456712;87;21332;-86
2023/05/21 02:57:25;;;;;;;11.70;8.97;;;;;;;14.52;94.68;100603.09;1452969;87;21510;-85
2023/05/21 02:59:51;;;;;;;15.03;9.50;;;;;;;14.50;94.60;100596.59;1453203;87;22347;-87
2023/05/21 03:02:22;;;;;;;15.10;10.33;;;;;;;14.49;94.42;100596.75;1446466;87;21496;-87
2023/05/21 03:04:50;;;;;;;;;;;;;;;14.45;94.67;100591.76;1455132;87;22449;-86
2023/05/21 03:07:19;;;;;;;13.60;8.57;;;;;;;14.44;95.47;100602.09;1457414;87;20314;-86
2023/05/21 03:09:45;;;;;;;13.27;8.60;;;;;;;14.46;94.32;100599.24;1457480;90;21566;-86
2023/05/21 03:12:20;;;;;;;15.90;7.60;;;;;;;14.49;94.17;100596.23;1462652;87;22513;-86
2023/05/21 03:14:50;;;;;;;10.47;8.53;;;;;;;14.53;93.94;100592.77;1456768;87;21505;-84
2023/05/21 03:17:17;;;;;;;13.47;8.70;;;;;;;14.57;93.77;100592.77;1450152;87;21353;-85
2023/05/21 03:19:44;;;;;;;13.07;8.07;;;;;;;14.59;93.99;100590.78;1459219;87;21413;-88
2023/05/21 03:22:10;;;;;;;14.67;8.90;;;;;;;14.56;93.47;100587.13;1449137;87;21444;-86
2023/05/21 03:24:40;;;;;;;13.57;9.00;;;;;;;14.51;93.66;100590.76;1462779;87;22377;-87
2023/05/21 03:27:07;;;;;;;15.20;9.07;;;;;;;14.43;95.39;100583.61;1456477;87;22850;-85
2023/05/21 03:29:33;;;;;;;15.60;8.60;;;;;;;14.33;96.21;100582.47;1467197;87;21236;-87
2023/05/21 03:32:01;;;;;;;11.97;7.10;;;;;;;14.30;96.59;100584.13;1465963;87;21312;-86
2023/05/21 03:34:27;;;;;;;9.70;7.03;;;;;;;14.32;96.80;100589.27;1456871;87;21408;-90
2023/05/21 03:36:53;;;;;;;12.00;7.10;;;;;;;14.35;96.54;100592.42;1455047;87;21370;-87
2023/05/21 03:39:20;;;;;;;10.47;8.27;;;;;;;14.38;97.40;100590.75;1454180;87;22435;-86
2023/05/21 03:41:46;;;;;;;18.40;7.77;;;;;;;14.42;96.99;100588.11;1456257;90;23267;-86
2023/05/21 03:44:12;;;;;;;15.87;8.40;;;;;;;14.47;97.44;100592.08;1459932;89;21408;-85
2023/05/21 03:46:38;;;;;;;17.00;9.47;;;;;;;14.49;97.09;100593.58;1452984;88;21474;-85
2023/05/21 03:49:58;;;;;;;12.97;8.43;;;;;;;14.55;96.55;100593.44;1448565;90;22406;-84
2023/05/21 03:52:24;;;;;;;17.90;8.30;;;;;;;14.62;96.88;100601.09;1450561;88;21533;-85
2023/05/21 03:54:50;;;;;;;9.20;7.00;;;;;;;14.71;96.10;100599.24;1457333;90;22486;-85
2023/05/21 03:57:16;;;;;;;14.40;7.93;;;;;;;14.78;96.51;100597.55;1453309;90;21415;-88
2023/05/21 03:59:42;;;;;;;13.17;7.53;;;;;;;14.85;96.21;100596.70;1458186;89;21438;-87
2023/05/21 04:02:09;;;;;;;17.47;8.10;;;;;;;14.95;95.77;100598.33;1453934;89;21666;-88
2023/05/21 04:04:54;;;;;;;14.57;8.87;;;;;;;15.02;95.38;100594.81;1441806;90;23031;-84
2023/05/21 04:07:21;;;;;;;16.90;8.17;;;;;;;15.07;95.77;100588.95;1455623;89;21446;-88
2023/05/21 04:09:47;;;;;;;12.07;7.87;;;;;;;15.10;95.77;100596.13;1457680;90;22235;-87
2023/05/21 04:12:14;;;;;;;14.23;8.47;;;;;;;15.15;95.65;100595.58;1453943;90;21683;-89
2023/05/21 04:14:40;;;;;;;10.67;6.87;;;;;;;15.22;95.55;100601.05;1456398;89;21425;-90
2023/05/21 04:17:08;;;;;;;11.70;7.63;;;;;;;15.29;95.28;100602.84;1459539;89;21421;-88
2023/05/21 04:19:34;;;;;;;14.90;7.40;;;;;;;15.38;94.88;100603.64;1448245;89;21452;-87
2023/05/21 04:22:01;;;;;;;13.87;8.03;;;;;;;15.44;94.79;100595.44;1451730;89;21488;-88
2023/05/21 04:24:28;;;;;;;10.83;7.90;;;;;;;15.50;94.66;100600.07;1449780;90;21872;-85
2023/05/21 04:26:54;;;;;;;10.57;7.60;;;;;;;15.59;93.94;100601.68;1453658;89;21311;-86
2023/05/21 04:29:21;;;;;;;10.47;7.53;;;;;;;15.67;93.84;100601.63;1435849;90;22384;-86
2023/05/21 04:31:48;;;;;;;17.47;7.60;;;;;;;15.75;93.71;100604.29;1437297;90;21371;-86
2023/05/21 04:34:18;;;;;;;10.03;7.47;;;;;;;15.85;93.50;100601.38;1453715;90;21385;-87
2023/05/21 04:36:45;;;;;;;12.37;7.25;;;;;;;15.94;92.67;100594.99;1457216;90;22442;-85
2023/05/21 04:39:12;;;;;;;11.83;7.53;;;;;;;16.01;92.36;100599.92;1454544;89;21408;-85
2023/05/21 04:41:39;;;;;;;9.97;7.90;;;;;;;16.10;91.95;100591.86;1455393;89;21945;-88
2023/05/21 04:44:09;;;;;;;12.97;8.07;;;;;;;16.19;91.97;100587.59;1450711;89;21563;-90
2023/05/21 04:46:36;;;;;;;12.90;8.35;;;;;;;16.27;92.09;100596.55;1455992;89;21716;-90
2023/05/21 04:49:03;;;;;;;14.00;7.57;;;;;;;16.32;91.41;100600.34;1448046;90;21385;-87
2023/05/21 04:51:30;;;;;;;13.40;7.27;;;;;;;16.43;91.28;100602.58;1430686;90;22308;-86
2023/05/21 04:54:03;;;;;;;10.30;6.93;;;;;;;16.52;90.81;100597.98;1460855;89;21378;-86
2023/05/21 04:56:30;;;;;;;12.40;6.63;;;;;;;16.64;90.43;100601.86;1448370;90;21600;-86
2023/05/21 04:58:57;;;;;;;10.00;7.53;;;;;;;16.73;90.00;100600.45;1452555;88;21392;-87
2023/05/21 05:01:28;;;;;;;14.57;7.73;;;;;;;16.82;89.50;100594.02;1442055;89;21551;-87
2023/05/21 05:03:55;;;;;;;15.43;7.57;;;;;;;16.90;88.95;100593.42;1456682;90;22384;-86
2023/05/21 05:06:31;;;;;;;18.67;7.47;;;;;;;16.97;88.79;100590.83;1436207;89;22019;-86
2023/05/21 05:12:58;;;;;;;9.18;5.75;;;;;;;17.20;88.04;100597.91;1454992;90;21518;-85
2023/05/21 05:15:25;;;;;;;11.30;7.10;;;;;;;17.39;87.29;100596.00;1455524;89;21570;-87
2023/05/21 05:17:51;;;;;;;13.70;6.37;;;;;;;17.47;85.78;100590.53;1455643;90;21532;-88
2023/05/21 05:24:55;;;;;;;14.90;7.55;;;;;;;17.64;84.56;100588.46;1447592;90;21621;-88
2023/05/21 05:27:21;;;;;;;8.83;6.70;;;;;;;17.83;84.31;100592.38;1460661;89;21606;-88
2023/05/21 05:33:34;;;;;;;15.80;6.97;;;;;;;18.01;82.52;100594.59;1456724;90;21607;-86
2023/05/21 05:36:00;;;;;;;10.80;6.40;;;;;;;18.11;81.22;100593.77;1453108;89;21408;-86
2023/05/21 05:38:26;;;;;;;11.67;6.37;;;;;;;18.19;80.64;100593.64;1435967;90;21562;-87
2023/05/21 05:40:52;;;;;;;12.10;6.80;;;;;;;18.28;80.75;100583.61;1454923;90;21401;-85
2023/05/21 05:43:19;;;;;;;13.20;6.73;;;;;;;18.43;80.89;100584.85;1448866;89;22350;-86
2023/05/21 05:45:45;;;;;;;6.83;6.07;;;;;;;18.54;80.44;100592.87;1453245;90;22361;-86
2023/05/21 05:48:12;;;;;;;7.57;6.43;;;;;;;18.66;79.71;100589.95;1450638;89;23009;-89
2023/05/21 05:50:38;;;;;;;16.07;7.17;;;;;;;18.74;79.67;100591.17;1454522;89;21408;-89
2023/05/21 05:53:04;;;;;;;14.17;6.07;;;;;;;18.85;79.07;100582.58;1440234;90;21408;-90
2023/05/21 05:55:30;;;;;;;13.72;7.53;;;;;;;18.96;78.91;100579.86;1452208;90;22273;-87
2023/05/21 05:57:56;;;;;;;11.97;5.97;;;;;;;19.09;78.74;100588.47;1454140;90;21555;-87
2023/05/21 06:00:22;;;;;;;11.93;6.17;;;;;;;19.22;78.92;100593.91;1438454;90;21422;-91
2023/05/21 06:02:49;;;;;;;8.85;6.22;;;;;;;19.37;78.49;100592.41;1453148;89;22310;-89
2023/05/21 06:05:15;;;;;;;9.25;6.83;;;;;;;19.49;77.13;100592.13;1465861;88;21459;-90
2023/05/21 06:12:00;;;;;;;14.20;6.20;;;;;;;19.63;73.72;100587.62;1458622;90;21474;-93
2023/05/21 06:14:26;;;;;;;10.15;5.65;;;;;;;19.72;74.01;100582.41;1459943;90;21363;-89
2023/05/21 06:16:57;;;;;;;9.95;5.20;;;;;;;19.84;74.51;100582.63;1454286;90;21430;-90
2023/05/21 06:19:23;;;;;;;12.00;5.95;;;;;;;19.91;72.80;100576.77;1453698;89;21341;-88
2023/05/21 06:21:52;;;;;;;14.20;7.03;;;;;;;20.04;73.70;100571.38;1448716;90;22273;-89
2023/05/21 06:24:18;;;;;;;9.85;5.75;;;;;;;20.20;74.13;100570.16;1453954;90;22295;-88
2023/05/21 06:26:47;;;;;;;10.98;6.33;;;;;;;20.37;73.16;100565.67;1453138;89;21386;-87
2023/05/21 06:29:13;;;;;;;8.65;4.87;;;;;;;20.47;71.88;100566.09;1433057;90;22062;-89
2023/05/21 06:31:39;;;;;;;9.83;5.37;;;;;;;20.60;70.94;100562.57;1454425;89;21364;-88
2023/05/21 06:34:06;;;;;;;9.85;5.60;;;;;;;20.62;69.89;100562.67;1453002;89;21474;-88
2023/05/21 06:36:32;;;;;;;15.05;5.37;;;;;;;20.77;70.60;100559.73;1455069;89;21809;-89
2023/05/21 06:38:58;;;;;;;16.30;5.45;;;;;;;20.90;69.07;100557.02;1453637;89;22324;-89
2023/05/21 06:41:25;;;;;;;9.73;5.25;;;;;;;20.97;67.69;100556.98;1439765;90;21504;-86
2023/05/21 06:43:51;;;;;;;14.47;5.35;;;;;;;21.02;67.11;100560.39;1449475;90;21421;-89
2023/05/21 06:46:17;;;;;;;7.90;5.15;;;;;;;21.10;67.69;100556.94;1456006;90;22464;-88
2023/05/21 06:48:45;;;;;;;7.85;4.83;;;;;;;21.21;67.31;100558.14;1449277;90;21371;-86
2023/05/21 06:51:11;;;;;;;7.12;5.00;;;;;;;21.32;67.29;100555.27;1445071;89;21393;-85
2023/05/21 06:53:38;;;;;;;10.68;5.08;;;;;;;21.39;66.95;100549.37;1459758;90;21327;-87
2023/05/21 06:56:04;;;;;;;12.10;5.10;;;;;;;21.51;67.16;100550.33;1447950;89;21437;-82
2023/05/21 06:58:30;;;;;;;11.73;5.28;;;;;;;21.64;65.61;100546.75;1456320;89;22680;-84
2023/05/21 07:00:58;;;;;;;9.88;5.05;;;;;;;21.68;64.77;100541.74;1450445;90;21474;-87
2023/05/21 07:03:24;;;;;;;11.60;4.97;;;;;;;21.87;63.09;100535.39;1450758;90;21421;-86
2023/05/21 07:05:50;;;;;;;7.33;5.28;;;;;;;22.05;65.81;100531.39;1455019;89;22755;-85
2023/05/21 07:08:21;;;;;;;11.55;5.22;;;;;;;22.05;65.81;100531.39;1449312;90;21408;-84
2023/05/21 07:10:49;;;;;;;9.70;4.97;;;;;;;22.27;66.00;100531.86;1452038;90;21400;-85
2023/05/21 07:13:15;;;;;;;7.30;4.95;;;;;;;22.45;65.10;100526.19;1378622;89;21208;-85
2023/05/21 07:15:41;;;;;;;10.00;5.40;;;;;;;22.58;64.78;100525.20;1386045;90;21438;-86
2023/05/21 07:18:08;;;;;;;11.22;5.05;;;;;;;22.58;61.21;100524.68;1380255;89;21208;-85
2023/05/21 07:27:41;;;;;;;8.48;5.08;;;;;;;22.98;62.28;100514.80;1423847;89;21451;-85
2023/05/21 07:30:09;;;;;;;9.55;4.95;;;;;;;23.09;61.04;100507.28;1462554;89;21572;-86
2023/05/21 07:32:35;;;;;;;8.65;4.92;;;;;;;23.04;57.44;100499.05;1461722;88;21380;-85
2023/05/21 07:35:01;;;;;;;7.67;4.87;;;;;;;23.21;60.32;100503.28;1443677;89;21625;-86
2023/05/21 07:37:27;;;;;;;7.83;4.70;;;;;;;23.32;59.47;100501.16;1462601;89;21373;-85
2023/05/21 07:39:57;;;;;;;10.05;5.10;;;;;;;23.47;59.89;100503.42;1444851;89;21517;-86
2023/05/21 07:42:24;;;;;;;13.08;4.28;;;;;;;23.54;58.57;100500.64;1460688;89;21371;-86
2023/05/21 07:44:51;;;;;;;8.03;5.05;;;;;;;23.54;58.53;100500.64;1463053;89;21440;-85
2023/05/21 07:47:17;;;;;;;8.35;3.98;;;;;;;23.62;55.30;100501.63;1461164;88;21688;-84
2023/05/21 07:49:43;;;;;;;13.65;4.25;;;;;;;23.66;55.04;100497.43;1462786;88;21439;-86
2023/05/21 07:52:09;;;;;;;8.68;4.85;;;;;;;23.67;54.78;100496.36;1464526;89;21521;-86
2023/05/21 07:54:35;;;;;;;7.08;4.97;;;;;;;23.87;56.49;100499.59;1477286;89;21404;-86
2023/05/21 07:57:02;;;;;;;5.95;4.28;;;;;;;24.06;56.39;100499.50;1453680;89;21373;-89
2023/05/21 07:59:28;;;;;;;9.40;4.40;;;;;;;24.21;55.94;100493.09;1462362;88;21527;-86
2023/05/21 08:01:55;;;;;;;8.05;4.83;;;;;;;24.39;55.63;100495.36;1462642;89;21550;-86
2023/05/21 08:04:21;;;;;;;6.83;4.12;;;;;;;24.52;55.25;100491.91;1465958;88;21439;-87
2023/05/21 08:06:48;;;;;;;10.38;4.55;;;;;;;24.68;54.97;100497.09;1465185;89;22201;-87
2023/05/21 08:09:14;;;;;;;6.72;4.80;;;;;;;24.76;53.45;100485.90;1447509;89;21403;-89
2023/05/21 08:11:40;;;;;;;6.20;3.52;;;;;;;24.86;53.51;100494.77;1462979;88;21896;-85
2023/05/21 08:14:06;;;;;;;8.28;4.40;;;;;;;24.94;53.80;100496.25;1463451;89;21507;-88
2023/05/21 08:16:32;;;;;;;10.65;3.72;;;;;;;25.02;53.61;100487.75;1449430;89;21402;-88
2023/05/21 08:18:58;;;;;;;12.10;5.92;;;;;;;25.12;53.14;100494.73;1463387;88;21380;-88
2023/05/21 08:21:25;;;;;;;8.58;4.33;;;;;;;25.21;53.27;100493.30;1467473;88;22312;-87
2023/05/21 08:23:54;;;;;;;6.00;3.98;;;;;;;25.28;53.01;100490.97;1463088;88;21539;-88
2023/05/21 08:26:20;;;;;;;13.28;4.55;;;;;;;25.36;52.78;100482.45;1460565;88;21403;-88
2023/05/21 08:28:47;;;;;;;11.08;3.98;;;;;;;25.50;52.65;100482.43;1449836;89;22376;-86
2023/05/21 08:31:16;;;;;;;9.98;4.33;;;;;;;25.58;49.55;100484.73;1459882;88;22304;-90
2023/05/21 08:33:51;;;;;;;9.90;4.28;;;;;;;25.75;49.54;100479.33;1465341;89;21424;-90
2023/05/21 08:36:18;;;;;;;12.53;4.60;;;;;;;25.83;48.71;100478.11;1462625;89;22401;-86
2023/05/21 08:38:44;;;;;;;11.65;3.72;;;;;;;25.88;48.68;100478.19;1461869;88;21454;-86
2023/05/21 08:41:12;;;;;;;95.77;47.03;;;;;;;25.90;45.69;100472.00;1445060;89;22527;-86
2023/05/21 08:43:41;;;;;;;11.85;4.00;;;;;;;26.01;46.36;100472.95;1469112;87;21634;-87
2023/05/21 08:49:34;;;;;;;11.15;4.22;;;;;;;26.22;44.82;100468.66;1498939;86;21513;-88
2023/05/21 08:52:02;;;;;;;12.20;4.50;;;;;;;26.35;44.86;100462.84;1419883;86;21411;-87
2023/05/21 08:54:28;;;;;;;6.85;3.83;;;;;;;26.43;43.65;100463.77;1426959;86;21292;-89
2023/05/21 08:56:57;;;;;;;6.62;3.62;;;;;;;26.55;42.57;100461.78;1442205;86;21498;-88
2023/05/21 08:59:23;;;;;;;11.88;3.65;;;;;;;26.66;42.82;100461.92;1486285;86;21455;-86
2023/05/21 09:01:51;;;;;;;8.53;3.70;;;;;;;26.75;41.45;100457.67;1499228;86;21373;-86
2023/05/21 09:04:17;;;;;;;6.25;3.60;;;;;;;26.68;40.19;100455.16;1500204;86;21358;-86
2023/05/21 09:06:44;;;;;;;9.63;4.45;;;;;;;26.83;40.94;100461.30;1504938;86;21321;-87
2023/05/21 09:09:28;;;;;;;7.35;3.62;;;;;;;26.97;41.14;100459.83;1497893;86;21322;-86
2023/05/21 09:11:54;;;;;;;7.90;3.67;;;;;;;27.07;40.81;100458.28;1496040;86;21581;-89
2023/05/21 09:14:22;;;;;;;8.05;3.90;;;;;;;27.17;40.78;100448.92;1480575;86;21456;-88
2023/05/21 09:17:00;;;;;;;9.78;3.90;;;;;;;27.25;40.29;100455.77;1501124;86;21358;-88
2023/05/21 09:19:28;;;;;;;6.40;3.87;;;;;;;27.31;40.40;100455.58;1484980;86;22268;-88
2023/05/21 09:22:06;;;;;;;5.03;3.37;;;;;;;27.33;39.46;100447.97;1500926;86;21410;-87
2023/05/21 09:24:34;;;;;;;5.75;3.80;;;;;;;27.48;39.42;100455.45;1500302;86;21440;-87
2023/05/21 09:27:04;;;;;;;4.00;3.60;;;;;;;27.56;37.83;100447.34;1500622;86;21510;-85
2023/05/21 09:29:33;;;;;;;6.12;2.80;;;;;;;27.58;36.51;100446.55;1483779;86;22394;-87
2023/05/21 09:32:06;;;;;;;6.93;3.70;;;;;;;27.67;38.21;100446.34;1498771;86;21388;-86
2023/05/21 09:34:37;;;;;;;5.92;3.60;;;;;;;27.74;37.66;100442.06;1502369;86;21411;-87
2023/05/21 09:37:06;;;;;;;5.08;3.62;;;;;;;27.77;38.08;100447.80;1503301;86;21381;-87
2023/05/21 09:39:33;;;;;;;6.92;3.33;;;;;;;27.90;38.11;100443.81;1501536;86;21462;-89
2023/05/21 09:41:59;;;;;;;5.22;3.50;;;;;;;28.01;38.06;100446.07;1505779;86;21528;-87
2023/05/21 09:44:25;;;;;;;4.20;3.17;;;;;;;27.97;37.28;100437.63;1500818;86;22334;-86
2023/05/21 09:47:01;;;;;;;5.40;3.40;;;;;;;28.05;37.69;100444.45;1501883;86;21484;-86
2023/05/21 09:49:26;;;;;;;5.92;3.12;;;;;;;27.97;36.49;100442.25;1495358;86;21581;-86
2023/05/21 09:51:58;;;;;;;9.23;3.67;;;;;;;27.90;33.87;100437.02;1501775;86;21344;-85
2023/05/21 09:54:26;;;;;;;5.10;3.25;;;;;;;27.86;36.88;100438.09;1481723;86;21344;-83
2023/05/21 09:56:53;;;;;;;7.62;3.65;;;;;;;27.96;36.50;100433.79;1502575;86;21402;-86
2023/05/21 09:59:19;;;;;;;9.13;3.67;;;;;;;28.04;36.09;100436.02;1500194;86;21562;-85
2023/05/21 10:01:46;;;;;;;7.92;3.47;;;;;;;27.89;35.58;100439.47;1484144;86;22371;-84
2023/05/21 10:04:12;;;;;;;5.12;3.27;;;;;;;27.94;36.26;100433.23;1499644;86;22644;-86
2023/05/21 10:06:46;;;;;;;6.17;3.40;;;;;;;27.97;35.90;100436.81;1501404;86;21388;-84
2023/05/21 10:09:14;;;;;;;4.67;3.17;;;;;;;27.96;36.17;100433.25;1505003;86;21631;-86
2023/05/21 10:11:45;;;;;;;6.03;3.40;;;;;;;28.03;35.99;100437.11;1499109;86;21506;-85
2023/05/21 10:14:21;;;;;;;6.47;3.70;;;;;;;28.02;35.57;100421.85;1426025;86;21255;-86
2023/05/21 10:16:48;;;;;;;6.80;3.45;;;;;;;28.20;35.31;100421.42;1566347;86;21358;-87
2023/05/21 10:19:16;;;;;;;6.22;3.50;;;;;;;28.26;35.10;100422.27;1499411;86;22383;-86
2023/05/21 10:21:44;;;;;;;9.68;3.12;;;;;;;28.21;35.41;100419.52;1502840;86;21418;-85
2023/05/21 10:24:12;;;;;;;8.18;4.58;;;;;;;28.31;35.73;100420.39;1406729;87;21417;-85
2023/05/21 10:26:40;;;;;;;5.83;3.67;;;;;;;28.51;35.83;100416.96;1462870;86;21337;-85
2023/05/21 10:29:07;;;;;;;5.35;3.58;;;;;;;28.70;35.02;100421.36;1505880;86;21543;-85
2023/05/21 10:31:39;;;;;;;5.42;3.45;;;;;;;28.83;35.10;100416.48;1483973;86;21626;-84
2023/05/21 10:34:06;;;;;;;7.08;3.45;;;;;;;28.86;34.42;100407.77;1482446;86;21536;-88
2023/05/21 10:36:35;;;;;;;8.30;3.17;;;;;;;28.96;34.46;100409.16;1497611;86;21439;-84
2023/05/21 10:39:02;;;;;;;7.25;3.55;;;;;;;29.04;34.71;100410.02;1498998;86;21536;-85
2023/05/21 10:41:33;;;;;;;8.20;3.62;;;;;;;29.06;33.70;100403.77;1498498;86;22328;-86
2023/05/21 10:44:14;;;;;;;9.30;4.17;;;;;;;28.99;33.36;100403.17;1502578;86;21535;-86
2023/05/21 10:47:04;;;;;;;5.12;3.55;;;;;;;29.13;35.07;100407.58;1458189;89;21684;-87
2023/05/21 10:49:57;;;;;;;5.70;2.98;;;;;;;29.28;35.41;100406.77;1455562;89;21721;-87
2023/05/21 10:52:56;;;;;;;17.12;4.00;;;;;;;29.46;34.60;100393.41;1440140;89;22320;-89
2023/05/21 10:55:48;;;;;;;5.70;3.75;;;;;;;29.63;34.29;100397.77;1460175;89;21632;-88
2023/05/21 10:58:38;;;;;;;8.05;3.75;;;;;;;29.68;33.44;100395.84;1444713;89;21441;-89
2023/05/21 11:01:05;;;;;;;6.67;3.83;;;;;;;29.61;33.50;100393.13;1458053;89;21551;-89
2023/05/21 11:03:33;;;;;;;6.60;3.47;;;;;;;29.54;33.96;100393.38;1458704;89;21538;-85
2023/05/21 11:06:04;;;;;;;8.18;3.70;;;;;;;29.18;33.56;100392.05;1459514;89;21528;-87
2023/05/21 11:08:36;;;;;;;25.62;4.40;;;;;;;29.05;34.10;100389.04;1458870;89;21589;-88
2023/05/21 11:11:00;;;;;;;5.70;3.62;;;;;;;28.82;35.00;100391.16;1439353;89;21345;-86
2023/05/21 11:13:31;;;;;;;6.08;3.65;;;;;;;28.70;35.07;100382.42;1410942;89;21426;-88
2023/05/21 11:16:04;;;;;;;8.05;4.03;;;;;;;28.71;35.82;100390.86;1402774;89;21419;-87
2023/05/21 11:18:38;;;;;;;8.88;3.87;;;;;;;28.59;35.88;100389.74;1507349;89;21511;-88
2023/05/21 11:21:07;;;;;;;6.60;4.42;;;;;;;28.43;35.64;100381.27;1487467;89;21417;-86
2023/05/21 11:24:15;;;;;;;6.40;3.60;;;;;;;28.53;34.68;100383.47;1512745;86;21263;-85
2023/05/21 11:26:54;;;;;;;11.08;3.80;;;;;;;28.64;34.88;100381.59;1420897;86;21277;-88
2023/05/21 11:29:32;;;;;;;15.83;4.08;;;;;;;28.77;34.68;100372.92;1410972;87;22114;-86
2023/05/21 11:32:04;;;;;;;6.15;3.65;;;;;;;29.01;34.30;100379.20;1591761;85;21226;-82
2023/05/21 11:34:42;;;;;;;6.12;3.70;;;;;;;28.68;34.84;100373.15;1515506;86;21671;-81
2023/05/21 11:37:23;;;;;;;7.62;4.40;;;;;;;28.44;35.31;100375.55;1509648;85;21344;-88
2023/05/21 11:39:50;;;;;;;5.25;3.45;;;;;;;28.45;36.17;100375.81;1503266;86;21529;-88
2023/05/21 11:42:36;;;;;;;11.65;3.80;;;;;;;28.75;35.99;100367.46;1489027;86;21366;-87
2023/05/21 11:45:03;;;;;;;11.83;4.20;;;;;;;29.01;35.36;100365.58;1503970;86;21433;-87
2023/05/21 11:47:31;;;;;;;9.00;3.60;;;;;;;29.34;34.92;100357.97;1501889;86;21329;-88
2023/05/21 11:50:01;;;;;;;6.55;3.60;;;;;;;29.53;34.52;100357.68;1485791;86;21536;-87
2023/05/21 11:52:31;;;;;;;8.65;3.72;;;;;;;29.75;34.58;100347.85;1512844;85;22268;-88
2023/05/21 11:54:58;;;;;;;5.67;3.25;;;;;;;29.77;33.29;100344.83;1574085;86;21322;-87
2023/05/21 11:57:33;;;;;;;8.35;3.60;;;;;;;29.77;33.54;100343.47;1421595;86;21456;-88